sensor_id;sensor_type;location;lat;lon;timestamp;P1;durP1;ratioP1;P2;durP2;ratioP2
53881;SDS011;39794;55.782;37.452;2023-07-13T00:01:14;2.42;;;1.80;;
53881;SDS011;39794;55.782;37.452;2023-07-13T00:03:45;3.22;;;1.85;;
53881;SDS011;39794;55.782;37.452;2023-07-13T00:06:14;2.70;;;1.75;;
53881;SDS011;39794;55.782;37.452;2023-07-13T00:08:43;2.15;;;1.88;;
53881;SDS011;39794;55.782;37.452;2023-07-13T00:11:11;3.00;;;1.83;;
53881;SDS011;39794;55.782;37.452;2023-07-13T00:13:41;3.75;;;1.75;;
53881;SDS011;39794;55.782;37.452;2023-07-13T00:16:10;2.42;;;1.52;;
53881;SDS011;39794;55.782;37.452;2023-07-13T00:18:41;4.07;;;2.78;;
53881;SDS011;39794;55.782;37.452;2023-07-13T00:21:11;2.83;;;1.73;;
53881;SDS011;39794;55.782;37.452;2023-07-13T00:23:40;4.13;;;2.00;;
53881;SDS011;39794;55.782;37.452;2023-07-13T00:26:10;2.63;;;1.80;;
53881;SDS011;39794;55.782;37.452;2023-07-13T00:28:41;2.85;;;1.63;;
53881;SDS011;39794;55.782;37.452;2023-07-13T00:31:10;2.22;;;1.80;;
53881;SDS011;39794;55.782;37.452;2023-07-13T00:33:42;9.57;;;2.25;;
53881;SDS011;39794;55.782;37.452;2023-07-13T00:36:12;3.60;;;1.70;;
53881;SDS011;39794;55.782;37.452;2023-07-13T00:38:41;3.38;;;2.03;;
53881;SDS011;39794;55.782;37.452;2023-07-13T00:41:10;2.33;;;1.60;;
53881;SDS011;39794;55.782;37.452;2023-07-13T00:43:41;2.75;;;1.77;;
53881;SDS011;39794;55.782;37.452;2023-07-13T00:46:16;2.95;;;1.90;;
53881;SDS011;39794;55.782;37.452;2023-07-13T00:48:50;3.53;;;1.98;;
53881;SDS011;39794;55.782;37.452;2023-07-13T00:51:24;3.10;;;2.33;;
53881;SDS011;39794;55.782;37.452;2023-07-13T00:53:56;3.92;;;2.00;;
53881;SDS011;39794;55.782;37.452;2023-07-13T00:56:28;3.65;;;2.20;;
53881;SDS011;39794;55.782;37.452;2023-07-13T00:59:00;1.60;;;1.45;;
53881;SDS011;39794;55.782;37.452;2023-07-13T01:01:30;2.38;;;1.98;;
53881;SDS011;39794;55.782;37.452;2023-07-13T01:04:00;2.28;;;1.88;;
53881;SDS011;39794;55.782;37.452;2023-07-13T01:06:30;4.88;;;2.13;;
53881;SDS011;39794;55.782;37.452;2023-07-13T01:08:59;3.03;;;1.85;;
53881;SDS011;39794;55.782;37.452;2023-07-13T01:11:30;2.67;;;1.98;;
53881;SDS011;39794;55.782;37.452;2023-07-13T01:13:59;2.67;;;1.95;;
53881;SDS011;39794;55.782;37.452;2023-07-13T01:16:29;3.38;;;2.10;;
53881;SDS011;39794;55.782;37.452;2023-07-13T01:19:00;3.63;;;1.85;;
53881;SDS011;39794;55.782;37.452;2023-07-13T01:21:32;3.45;;;2.05;;
53881;SDS011;39794;55.782;37.452;2023-07-13T01:24:01;3.60;;;1.88;;
53881;SDS011;39794;55.782;37.452;2023-07-13T01:26:30;2.75;;;2.10;;
53881;SDS011;39794;55.782;37.452;2023-07-13T01:28:59;3.97;;;2.00;;
53881;SDS011;39794;55.782;37.452;2023-07-13T01:31:28;3.35;;;2.20;;
53881;SDS011;39794;55.782;37.452;2023-07-13T01:33:57;2.38;;;1.85;;
53881;SDS011;39794;55.782;37.452;2023-07-13T01:36:26;2.17;;;1.95;;
53881;SDS011;39794;55.782;37.452;2023-07-13T01:38:56;3.67;;;2.03;;
53881;SDS011;39794;55.782;37.452;2023-07-13T01:41:25;2.95;;;2.08;;
53881;SDS011;39794;55.782;37.452;2023-07-13T01:43:54;2.70;;;2.10;;
53881;SDS011;39794;55.782;37.452;2023-07-13T01:46:22;3.88;;;2.00;;
53881;SDS011;39794;55.782;37.452;2023-07-13T01:48:52;2.50;;;2.10;;
53881;SDS011;39794;55.782;37.452;2023-07-13T01:51:21;2.70;;;2.00;;
53881;SDS011;39794;55.782;37.452;2023-07-13T01:53:50;4.40;;;2.30;;
53881;SDS011;39794;55.782;37.452;2023-07-13T01:56:20;5.60;;;2.10;;
53881;SDS011;39794;55.782;37.452;2023-07-13T01:58:49;3.92;;;1.75;;
53881;SDS011;39794;55.782;37.452;2023-07-13T02:01:17;4.03;;;2.65;;
53881;SDS011;39794;55.782;37.452;2023-07-13T02:03:47;3.20;;;2.30;;
53881;SDS011;39794;55.782;37.452;2023-07-13T02:06:15;2.15;;;1.80;;
53881;SDS011;39794;55.782;37.452;2023-07-13T02:08:44;2.35;;;2.15;;
53881;SDS011;39794;55.782;37.452;2023-07-13T02:11:13;2.45;;;2.10;;
53881;SDS011;39794;55.782;37.452;2023-07-13T02:13:43;3.05;;;2.25;;
53881;SDS011;39794;55.782;37.452;2023-07-13T02:16:12;2.72;;;2.05;;
53881;SDS011;39794;55.782;37.452;2023-07-13T02:18:41;3.25;;;1.85;;
53881;SDS011;39794;55.782;37.452;2023-07-13T02:21:10;2.78;;;2.15;;
53881;SDS011;39794;55.782;37.452;2023-07-13T02:23:39;4.10;;;2.33;;
53881;SDS011;39794;55.782;37.452;2023-07-13T02:26:09;4.10;;;2.40;;
53881;SDS011;39794;55.782;37.452;2023-07-13T02:28:41;2.80;;;2.25;;
53881;SDS011;39794;55.782;37.452;2023-07-13T02:31:14;2.95;;;2.15;;
53881;SDS011;39794;55.782;37.452;2023-07-13T02:33:45;6.40;;;2.35;;
53881;SDS011;39794;55.782;37.452;2023-07-13T02:36:14;3.25;;;1.75;;
53881;SDS011;39794;55.782;37.452;2023-07-13T02:38:44;3.55;;;1.92;;
53881;SDS011;39794;55.782;37.452;2023-07-13T02:41:13;3.47;;;2.00;;
53881;SDS011;39794;55.782;37.452;2023-07-13T02:43:42;3.00;;;1.98;;
53881;SDS011;39794;55.782;37.452;2023-07-13T02:46:10;4.28;;;1.90;;
53881;SDS011;39794;55.782;37.452;2023-07-13T02:48:41;4.07;;;2.35;;
53881;SDS011;39794;55.782;37.452;2023-07-13T02:51:15;5.32;;;2.63;;
53881;SDS011;39794;55.782;37.452;2023-07-13T02:53:44;3.30;;;2.30;;
53881;SDS011;39794;55.782;37.452;2023-07-13T02:56:13;3.10;;;2.30;;
53881;SDS011;39794;55.782;37.452;2023-07-13T02:58:44;5.15;;;2.25;;
53881;SDS011;39794;55.782;37.452;2023-07-13T03:01:13;2.88;;;2.08;;
53881;SDS011;39794;55.782;37.452;2023-07-13T03:03:47;3.72;;;2.00;;
53881;SDS011;39794;55.782;37.452;2023-07-13T03:06:18;4.88;;;2.38;;
53881;SDS011;39794;55.782;37.452;2023-07-13T03:08:52;7.57;;;2.50;;
53881;SDS011;39794;55.782;37.452;2023-07-13T03:11:22;4.40;;;1.90;;
53881;SDS011;39794;55.782;37.452;2023-07-13T03:14:15;2.92;;;1.95;;
53881;SDS011;39794;55.782;37.452;2023-07-13T03:16:44;3.30;;;2.30;;
53881;SDS011;39794;55.782;37.452;2023-07-13T03:19:15;2.83;;;1.90;;
53881;SDS011;39794;55.782;37.452;2023-07-13T03:21:49;3.22;;;1.90;;
53881;SDS011;39794;55.782;37.452;2023-07-13T03:24:20;4.68;;;2.10;;
53881;SDS011;39794;55.782;37.452;2023-07-13T03:26:51;3.63;;;2.22;;
53881;SDS011;39794;55.782;37.452;2023-07-13T03:29:20;3.70;;;2.05;;
53881;SDS011;39794;55.782;37.452;2023-07-13T03:31:50;4.38;;;2.42;;
53881;SDS011;39794;55.782;37.452;2023-07-13T03:34:20;2.90;;;2.25;;
53881;SDS011;39794;55.782;37.452;2023-07-13T03:36:49;2.83;;;1.77;;
53881;SDS011;39794;55.782;37.452;2023-07-13T03:39:20;2.70;;;2.05;;
53881;SDS011;39794;55.782;37.452;2023-07-13T03:41:53;6.43;;;1.80;;
53881;SDS011;39794;55.782;37.452;2023-07-13T03:44:22;2.78;;;1.65;;
53881;SDS011;39794;55.782;37.452;2023-07-13T03:46:54;4.13;;;2.00;;
53881;SDS011;39794;55.782;37.452;2023-07-13T03:49:25;2.20;;;1.95;;
53881;SDS011;39794;55.782;37.452;2023-07-13T03:51:54;4.57;;;2.10;;
53881;SDS011;39794;55.782;37.452;2023-07-13T03:54:22;3.80;;;1.95;;
53881;SDS011;39794;55.782;37.452;2023-07-13T03:56:51;4.57;;;2.03;;
53881;SDS011;39794;55.782;37.452;2023-07-13T03:59:21;2.53;;;2.00;;
53881;SDS011;39794;55.782;37.452;2023-07-13T04:01:50;2.28;;;1.70;;
53881;SDS011;39794;55.782;37.452;2023-07-13T04:04:22;3.25;;;1.85;;
53881;SDS011;39794;55.782;37.452;2023-07-13T04:06:53;2.33;;;1.95;;
53881;SDS011;39794;55.782;37.452;2023-07-13T04:09:22;3.22;;;2.03;;
53881;SDS011;39794;55.782;37.452;2023-07-13T04:11:51;3.35;;;1.98;;
53881;SDS011;39794;55.782;37.452;2023-07-13T04:14:20;3.80;;;2.00;;
53881;SDS011;39794;55.782;37.452;2023-07-13T04:16:48;4.28;;;2.00;;
53881;SDS011;39794;55.782;37.452;2023-07-13T04:19:17;4.75;;;2.00;;
53881;SDS011;39794;55.782;37.452;2023-07-13T04:21:47;3.60;;;1.83;;
53881;SDS011;39794;55.782;37.452;2023-07-13T04:24:17;3.88;;;2.00;;
53881;SDS011;39794;55.782;37.452;2023-07-13T04:26:46;3.65;;;2.33;;
53881;SDS011;39794;55.782;37.452;2023-07-13T04:29:15;3.38;;;1.80;;
53881;SDS011;39794;55.782;37.452;2023-07-13T04:31:44;2.08;;;1.83;;
53881;SDS011;39794;55.782;37.452;2023-07-13T04:34:13;5.28;;;2.30;;
53881;SDS011;39794;55.782;37.452;2023-07-13T04:36:41;2.22;;;1.85;;
53881;SDS011;39794;55.782;37.452;2023-07-13T04:39:10;2.75;;;1.90;;
53881;SDS011;39794;55.782;37.452;2023-07-13T04:41:40;2.45;;;1.90;;
53881;SDS011;39794;55.782;37.452;2023-07-13T04:44:09;2.38;;;1.67;;
53881;SDS011;39794;55.782;37.452;2023-07-13T04:46:38;4.20;;;1.60;;
53881;SDS011;39794;55.782;37.452;2023-07-13T04:49:07;2.85;;;2.08;;
53881;SDS011;39794;55.782;37.452;2023-07-13T04:51:37;3.15;;;2.30;;
53881;SDS011;39794;55.782;37.452;2023-07-13T04:54:05;3.47;;;1.77;;
53881;SDS011;39794;55.782;37.452;2023-07-13T04:56:35;5.25;;;2.03;;
53881;SDS011;39794;55.782;37.452;2023-07-13T04:59:05;4.00;;;2.35;;
53881;SDS011;39794;55.782;37.452;2023-07-13T05:01:34;5.07;;;1.90;;
53881;SDS011;39794;55.782;37.452;2023-07-13T05:04:02;2.15;;;1.65;;
53881;SDS011;39794;55.782;37.452;2023-07-13T05:06:31;2.63;;;1.77;;
53881;SDS011;39794;55.782;37.452;2023-07-13T05:09:00;3.58;;;1.83;;
53881;SDS011;39794;55.782;37.452;2023-07-13T05:11:30;3.10;;;1.85;;
53881;SDS011;39794;55.782;37.452;2023-07-13T05:13:58;4.57;;;1.90;;
53881;SDS011;39794;55.782;37.452;2023-07-13T05:16:29;2.45;;;1.42;;
53881;SDS011;39794;55.782;37.452;2023-07-13T05:18:59;2.70;;;1.83;;
53881;SDS011;39794;55.782;37.452;2023-07-13T05:21:27;2.00;;;1.77;;
53881;SDS011;39794;55.782;37.452;2023-07-13T05:23:56;3.75;;;1.70;;
53881;SDS011;39794;55.782;37.452;2023-07-13T05:26:36;2.75;;;1.80;;
53881;SDS011;39794;55.782;37.452;2023-07-13T05:29:05;2.90;;;2.05;;
53881;SDS011;39794;55.782;37.452;2023-07-13T05:31:36;3.08;;;1.83;;
53881;SDS011;39794;55.782;37.452;2023-07-13T05:34:07;2.67;;;1.70;;
53881;SDS011;39794;55.782;37.452;2023-07-13T05:36:36;9.23;;;2.00;;
53881;SDS011;39794;55.782;37.452;2023-07-13T05:39:04;4.13;;;1.83;;
53881;SDS011;39794;55.782;37.452;2023-07-13T05:41:33;2.08;;;1.38;;
53881;SDS011;39794;55.782;37.452;2023-07-13T05:44:02;6.68;;;1.80;;
53881;SDS011;39794;55.782;37.452;2023-07-13T05:46:31;1.65;;;1.20;;
53881;SDS011;39794;55.782;37.452;2023-07-13T05:49:01;2.63;;;1.70;;
53881;SDS011;39794;55.782;37.452;2023-07-13T05:51:30;2.22;;;1.50;;
53881;SDS011;39794;55.782;37.452;2023-07-13T05:53:59;4.35;;;1.35;;
53881;SDS011;39794;55.782;37.452;2023-07-13T05:56:28;2.78;;;1.70;;
53881;SDS011;39794;55.782;37.452;2023-07-13T05:58:56;2.05;;;1.70;;
53881;SDS011;39794;55.782;37.452;2023-07-13T06:01:25;2.28;;;1.50;;
53881;SDS011;39794;55.782;37.452;2023-07-13T06:03:54;2.50;;;1.27;;
53881;SDS011;39794;55.782;37.452;2023-07-13T06:06:24;2.38;;;1.60;;
53881;SDS011;39794;55.782;37.452;2023-07-13T06:08:53;6.68;;;3.40;;
53881;SDS011;39794;55.782;37.452;2023-07-13T06:11:23;1.42;;;1.20;;
53881;SDS011;39794;55.782;37.452;2023-07-13T06:13:52;3.60;;;1.38;;
53881;SDS011;39794;55.782;37.452;2023-07-13T06:16:21;4.53;;;1.50;;
53881;SDS011;39794;55.782;37.452;2023-07-13T06:18:50;1.60;;;1.42;;
53881;SDS011;39794;55.782;37.452;2023-07-13T06:21:21;1.90;;;1.40;;
53881;SDS011;39794;55.782;37.452;2023-07-13T06:23:52;2.20;;;1.60;;
53881;SDS011;39794;55.782;37.452;2023-07-13T06:26:23;2.67;;;1.60;;
53881;SDS011;39794;55.782;37.452;2023-07-13T06:28:53;4.25;;;1.35;;
53881;SDS011;39794;55.782;37.452;2023-07-13T06:31:21;3.60;;;1.52;;
53881;SDS011;39794;55.782;37.452;2023-07-13T06:33:50;2.65;;;1.58;;
53881;SDS011;39794;55.782;37.452;2023-07-13T06:36:19;9.30;;;1.80;;
53881;SDS011;39794;55.782;37.452;2023-07-13T06:38:48;2.45;;;1.40;;
53881;SDS011;39794;55.782;37.452;2023-07-13T06:41:17;5.13;;;1.77;;
53881;SDS011;39794;55.782;37.452;2023-07-13T06:43:47;5.38;;;1.70;;
53881;SDS011;39794;55.782;37.452;2023-07-13T06:46:15;6.30;;;1.35;;
53881;SDS011;39794;55.782;37.452;2023-07-13T06:48:44;2.90;;;1.90;;
53881;SDS011;39794;55.782;37.452;2023-07-13T06:51:13;2.40;;;1.15;;
53881;SDS011;39794;55.782;37.452;2023-07-13T06:53:42;4.18;;;1.58;;
53881;SDS011;39794;55.782;37.452;2023-07-13T06:56:11;3.83;;;1.65;;
53881;SDS011;39794;55.782;37.452;2023-07-13T06:58:44;2.40;;;1.50;;
53881;SDS011;39794;55.782;37.452;2023-07-13T07:01:13;8.32;;;1.65;;
53881;SDS011;39794;55.782;37.452;2023-07-13T07:03:42;2.85;;;1.30;;
53881;SDS011;39794;55.782;37.452;2023-07-13T07:06:12;2.78;;;1.42;;
53881;SDS011;39794;55.782;37.452;2023-07-13T07:11:14;2.55;;;1.90;;
53881;SDS011;39794;55.782;37.452;2023-07-13T07:13:46;3.78;;;1.70;;
53881;SDS011;39794;55.782;37.452;2023-07-13T07:16:15;1.90;;;1.50;;
53881;SDS011;39794;55.782;37.452;2023-07-13T07:18:44;4.22;;;2.00;;
53881;SDS011;39794;55.782;37.452;2023-07-13T07:21:13;3.55;;;1.70;;
53881;SDS011;39794;55.782;37.452;2023-07-13T07:23:42;2.58;;;1.60;;
53881;SDS011;39794;55.782;37.452;2023-07-13T07:26:11;3.67;;;1.70;;
53881;SDS011;39794;55.782;37.452;2023-07-13T07:28:40;3.00;;;1.67;;
53881;SDS011;39794;55.782;37.452;2023-07-13T07:31:16;2.80;;;1.85;;
53881;SDS011;39794;55.782;37.452;2023-07-13T07:33:51;3.80;;;1.60;;
53881;SDS011;39794;55.782;37.452;2023-07-13T07:36:20;3.50;;;1.63;;
53881;SDS011;39794;55.782;37.452;2023-07-13T07:38:51;3.42;;;1.40;;
53881;SDS011;39794;55.782;37.452;2023-07-13T07:41:22;3.05;;;1.50;;
53881;SDS011;39794;55.782;37.452;2023-07-13T07:43:54;2.47;;;1.35;;
53881;SDS011;39794;55.782;37.452;2023-07-13T07:46:24;6.03;;;1.42;;
53881;SDS011;39794;55.782;37.452;2023-07-13T07:48:53;4.05;;;1.67;;
53881;SDS011;39794;55.782;37.452;2023-07-13T07:51:22;3.78;;;1.45;;
53881;SDS011;39794;55.782;37.452;2023-07-13T07:53:52;2.38;;;1.40;;
53881;SDS011;39794;55.782;37.452;2023-07-13T07:56:21;2.47;;;1.60;;
53881;SDS011;39794;55.782;37.452;2023-07-13T07:58:52;4.22;;;1.92;;
53881;SDS011;39794;55.782;37.452;2023-07-13T08:01:26;2.45;;;1.77;;
53881;SDS011;39794;55.782;37.452;2023-07-13T08:03:57;4.17;;;1.80;;
53881;SDS011;39794;55.782;37.452;2023-07-13T08:06:31;2.33;;;1.73;;
53881;SDS011;39794;55.782;37.452;2023-07-13T08:09:03;4.47;;;1.70;;
53881;SDS011;39794;55.782;37.452;2023-07-13T08:11:35;3.08;;;1.40;;
53881;SDS011;39794;55.782;37.452;2023-07-13T08:15:57;3.50;;;1.55;;
53881;SDS011;39794;55.782;37.452;2023-07-13T08:17:34;2.42;;;1.58;;
53881;SDS011;39794;55.782;37.452;2023-07-13T08:20:08;1.80;;;1.45;;
53881;SDS011;39794;55.782;37.452;2023-07-13T08:22:38;3.15;;;1.83;;
53881;SDS011;39794;55.782;37.452;2023-07-13T08:25:10;3.92;;;1.90;;
53881;SDS011;39794;55.782;37.452;2023-07-13T08:27:39;5.90;;;1.92;;
53881;SDS011;39794;55.782;37.452;2023-07-13T08:30:08;2.63;;;1.40;;
53881;SDS011;39794;55.782;37.452;2023-07-13T08:32:39;4.15;;;2.30;;
53881;SDS011;39794;55.782;37.452;2023-07-13T08:35:08;3.95;;;1.85;;
53881;SDS011;39794;55.782;37.452;2023-07-13T08:37:37;2.78;;;1.75;;
53881;SDS011;39794;55.782;37.452;2023-07-13T08:40:19;1.85;;;1.35;;
53881;SDS011;39794;55.782;37.452;2023-07-13T08:42:58;2.35;;;1.92;;
53881;SDS011;39794;55.782;37.452;2023-07-13T08:46:00;2.35;;;1.80;;
53881;SDS011;39794;55.782;37.452;2023-07-13T08:48:36;2.67;;;1.80;;
53881;SDS011;39794;55.782;37.452;2023-07-13T08:51:11;5.82;;;1.77;;
53881;SDS011;39794;55.782;37.452;2023-07-13T08:53:49;2.47;;;1.90;;
53881;SDS011;39794;55.782;37.452;2023-07-13T09:18:21;2.47;;;2.00;;
53881;SDS011;39794;55.782;37.452;2023-07-13T09:20:59;3.88;;;2.10;;
53881;SDS011;39794;55.782;37.452;2023-07-13T09:23:30;4.95;;;2.50;;
53881;SDS011;39794;55.782;37.452;2023-07-13T09:26:00;4.57;;;1.80;;
53881;SDS011;39794;55.782;37.452;2023-07-13T09:28:33;3.15;;;1.98;;
53881;SDS011;39794;55.782;37.452;2023-07-13T09:31:07;4.55;;;2.10;;
53881;SDS011;39794;55.782;37.452;2023-07-13T09:33:42;4.15;;;2.17;;
53881;SDS011;39794;55.782;37.452;2023-07-13T09:36:16;3.25;;;2.50;;
53881;SDS011;39794;55.782;37.452;2023-07-13T09:38:47;3.58;;;2.78;;
53881;SDS011;39794;55.782;37.452;2023-07-13T09:41:19;2.80;;;2.33;;
53881;SDS011;39794;55.782;37.452;2023-07-13T09:46:47;3.05;;;2.35;;
53881;SDS011;39794;55.782;37.452;2023-07-13T09:49:24;4.93;;;2.63;;
53881;SDS011;39794;55.782;37.452;2023-07-13T09:51:57;4.35;;;2.78;;
53881;SDS011;39794;55.782;37.452;2023-07-13T09:54:27;6.10;;;2.72;;
53881;SDS011;39794;55.782;37.452;2023-07-13T09:56:56;3.85;;;2.72;;
53881;SDS011;39794;55.782;37.452;2023-07-13T09:59:27;7.30;;;3.35;;
53881;SDS011;39794;55.782;37.452;2023-07-13T10:01:58;8.02;;;3.45;;
53881;SDS011;39794;55.782;37.452;2023-07-13T10:04:30;6.70;;;2.90;;
53881;SDS011;39794;55.782;37.452;2023-07-13T10:07:06;4.85;;;2.80;;
53881;SDS011;39794;55.782;37.452;2023-07-13T10:09:55;6.07;;;3.45;;
53881;SDS011;39794;55.782;37.452;2023-07-13T10:12:25;4.55;;;2.63;;
53881;SDS011;39794;55.782;37.452;2023-07-13T10:14:55;4.15;;;2.88;;
53881;SDS011;39794;55.782;37.452;2023-07-13T10:17:38;3.90;;;2.60;;
53881;SDS011;39794;55.782;37.452;2023-07-13T10:20:09;5.38;;;2.70;;
53881;SDS011;39794;55.782;37.452;2023-07-13T10:22:42;4.95;;;2.33;;
53881;SDS011;39794;55.782;37.452;2023-07-13T10:25:14;4.13;;;2.70;;
53881;SDS011;39794;55.782;37.452;2023-07-13T10:27:45;5.25;;;2.08;;
53881;SDS011;39794;55.782;37.452;2023-07-13T10:30:15;4.72;;;2.55;;
53881;SDS011;39794;55.782;37.452;2023-07-13T10:32:47;7.32;;;2.28;;
53881;SDS011;39794;55.782;37.452;2023-07-13T10:35:19;8.55;;;2.75;;
53881;SDS011;39794;55.782;37.452;2023-07-13T10:37:49;4.15;;;1.92;;
53881;SDS011;39794;55.782;37.452;2023-07-13T10:40:22;6.10;;;2.40;;
53881;SDS011;39794;55.782;37.452;2023-07-13T10:42:54;3.05;;;2.22;;
53881;SDS011;39794;55.782;37.452;2023-07-13T10:45:25;9.23;;;2.58;;
53881;SDS011;39794;55.782;37.452;2023-07-13T10:47:55;5.50;;;2.78;;
53881;SDS011;39794;55.782;37.452;2023-07-13T10:50:26;4.32;;;2.50;;
53881;SDS011;39794;55.782;37.452;2023-07-13T10:53:01;4.70;;;2.70;;
53881;SDS011;39794;55.782;37.452;2023-07-13T10:55:34;6.30;;;2.38;;
53881;SDS011;39794;55.782;37.452;2023-07-13T10:58:18;4.13;;;2.60;;
53881;SDS011;39794;55.782;37.452;2023-07-13T11:00:48;8.40;;;2.70;;
53881;SDS011;39794;55.782;37.452;2023-07-13T11:03:21;3.33;;;2.35;;
53881;SDS011;39794;55.782;37.452;2023-07-13T11:06:03;5.72;;;2.50;;
53881;SDS011;39794;55.782;37.452;2023-07-13T11:08:36;4.05;;;2.80;;
53881;SDS011;39794;55.782;37.452;2023-07-13T11:14:14;4.45;;;2.70;;
53881;SDS011;39794;55.782;37.452;2023-07-13T11:16:55;5.25;;;2.80;;
53881;SDS011;39794;55.782;37.452;2023-07-13T11:19:28;4.90;;;2.53;;
53881;SDS011;39794;55.782;37.452;2023-07-13T11:22:13;3.00;;;2.30;;
53881;SDS011;39794;55.782;37.452;2023-07-13T11:25:00;3.28;;;2.33;;
53881;SDS011;39794;55.782;37.452;2023-07-13T11:27:35;3.35;;;2.30;;
53881;SDS011;39794;55.782;37.452;2023-07-13T11:30:24;3.13;;;2.03;;
53881;SDS011;39794;55.782;37.452;2023-07-13T11:36:03;5.00;;;2.15;;
53881;SDS011;39794;55.782;37.452;2023-07-13T11:38:35;4.80;;;2.60;;
53881;SDS011;39794;55.782;37.452;2023-07-13T11:41:06;6.22;;;2.33;;
53881;SDS011;39794;55.782;37.452;2023-07-13T11:43:39;5.63;;;2.20;;
53881;SDS011;39794;55.782;37.452;2023-07-13T11:46:12;5.55;;;2.83;;
53881;SDS011;39794;55.782;37.452;2023-07-13T11:48:42;6.53;;;3.95;;
53881;SDS011;39794;55.782;37.452;2023-07-13T11:51:15;4.68;;;2.55;;
53881;SDS011;39794;55.782;37.452;2023-07-13T11:53:49;3.97;;;2.60;;
53881;SDS011;39794;55.782;37.452;2023-07-13T11:58:50;3.63;;;2.78;;
53881;SDS011;39794;55.782;37.452;2023-07-13T12:01:22;3.35;;;2.30;;
53881;SDS011;39794;55.782;37.452;2023-07-13T12:03:52;6.13;;;2.13;;
53881;SDS011;39794;55.782;37.452;2023-07-13T12:06:24;3.58;;;2.35;;
53881;SDS011;39794;55.782;37.452;2023-07-13T12:08:58;3.95;;;2.30;;
53881;SDS011;39794;55.782;37.452;2023-07-13T12:11:27;4.43;;;1.98;;
53881;SDS011;39794;55.782;37.452;2023-07-13T12:13:56;4.68;;;2.55;;
53881;SDS011;39794;55.782;37.452;2023-07-13T12:16:29;2.28;;;1.83;;
53881;SDS011;39794;55.782;37.452;2023-07-13T12:19:00;4.38;;;2.28;;
53881;SDS011;39794;55.782;37.452;2023-07-13T12:21:30;3.30;;;2.22;;
53881;SDS011;39794;55.782;37.452;2023-07-13T12:24:01;5.72;;;2.60;;
53881;SDS011;39794;55.782;37.452;2023-07-13T12:26:31;7.00;;;2.58;;
53881;SDS011;39794;55.782;37.452;2023-07-13T12:29:00;3.40;;;2.30;;
53881;SDS011;39794;55.782;37.452;2023-07-13T12:31:31;2.50;;;2.00;;
53881;SDS011;39794;55.782;37.452;2023-07-13T12:34:07;7.80;;;3.13;;
53881;SDS011;39794;55.782;37.452;2023-07-13T12:36:40;4.38;;;2.35;;
53881;SDS011;39794;55.782;37.452;2023-07-13T12:39:15;4.72;;;2.05;;
53881;SDS011;39794;55.782;37.452;2023-07-13T12:41:47;3.77;;;2.53;;
53881;SDS011;39794;55.782;37.452;2023-07-13T12:44:17;4.07;;;2.10;;
53881;SDS011;39794;55.782;37.452;2023-07-13T12:46:52;4.88;;;2.13;;
53881;SDS011;39794;55.782;37.452;2023-07-13T12:49:24;3.13;;;2.00;;
53881;SDS011;39794;55.782;37.452;2023-07-13T12:51:58;3.83;;;2.17;;
53881;SDS011;39794;55.782;37.452;2023-07-13T12:54:30;2.63;;;2.08;;
53881;SDS011;39794;55.782;37.452;2023-07-13T12:57:08;5.82;;;3.40;;
53881;SDS011;39794;55.782;37.452;2023-07-13T12:59:43;5.68;;;2.60;;
53881;SDS011;39794;55.782;37.452;2023-07-13T13:02:21;4.70;;;2.95;;
53881;SDS011;39794;55.782;37.452;2023-07-13T13:04:55;3.10;;;2.13;;
53881;SDS011;39794;55.782;37.452;2023-07-13T13:07:25;6.70;;;2.55;;
53881;SDS011;39794;55.782;37.452;2023-07-13T13:09:55;3.90;;;2.40;;
53881;SDS011;39794;55.782;37.452;2023-07-13T13:12:25;2.45;;;1.73;;
53881;SDS011;39794;55.782;37.452;2023-07-13T13:14:53;4.57;;;2.10;;
53881;SDS011;39794;55.782;37.452;2023-07-13T13:17:24;2.60;;;2.00;;
53881;SDS011;39794;55.782;37.452;2023-07-13T13:19:58;3.35;;;2.50;;
53881;SDS011;39794;55.782;37.452;2023-07-13T13:22:30;5.93;;;2.30;;
53881;SDS011;39794;55.782;37.452;2023-07-13T13:25:00;5.30;;;2.40;;
53881;SDS011;39794;55.782;37.452;2023-07-13T13:27:32;3.65;;;2.42;;
53881;SDS011;39794;55.782;37.452;2023-07-13T13:30:01;4.93;;;2.30;;
53881;SDS011;39794;55.782;37.452;2023-07-13T13:32:30;3.22;;;2.08;;
53881;SDS011;39794;55.782;37.452;2023-07-13T13:34:59;4.10;;;2.60;;
53881;SDS011;39794;55.782;37.452;2023-07-13T13:37:29;5.57;;;2.40;;
53881;SDS011;39794;55.782;37.452;2023-07-13T13:39:57;2.92;;;2.30;;
53881;SDS011;39794;55.782;37.452;2023-07-13T13:42:36;3.03;;;2.28;;
53881;SDS011;39794;55.782;37.452;2023-07-13T13:45:07;7.00;;;2.78;;
53881;SDS011;39794;55.782;37.452;2023-07-13T13:47:35;3.35;;;2.13;;
53881;SDS011;39794;55.782;37.452;2023-07-13T13:50:10;3.30;;;2.00;;
53881;SDS011;39794;55.782;37.452;2023-07-13T13:52:42;5.30;;;2.80;;
53881;SDS011;39794;55.782;37.452;2023-07-13T13:55:11;2.72;;;2.00;;
53881;SDS011;39794;55.782;37.452;2023-07-13T13:57:42;4.10;;;2.10;;
53881;SDS011;39794;55.782;37.452;2023-07-13T14:00:11;9.30;;;2.58;;
53881;SDS011;39794;55.782;37.452;2023-07-13T14:02:42;7.18;;;2.20;;
53881;SDS011;39794;55.782;37.452;2023-07-13T14:05:15;3.45;;;2.13;;
53881;SDS011;39794;55.782;37.452;2023-07-13T14:07:50;3.22;;;2.17;;
53881;SDS011;39794;55.782;37.452;2023-07-13T14:10:19;4.57;;;2.92;;
53881;SDS011;39794;55.782;37.452;2023-07-13T14:12:50;3.40;;;2.33;;
53881;SDS011;39794;55.782;37.452;2023-07-13T14:15:21;5.38;;;2.60;;
53881;SDS011;39794;55.782;37.452;2023-07-13T14:17:53;5.97;;;2.90;;
53881;SDS011;39794;55.782;37.452;2023-07-13T14:20:27;4.90;;;2.83;;
53881;SDS011;39794;55.782;37.452;2023-07-13T14:22:59;4.63;;;2.45;;
53881;SDS011;39794;55.782;37.452;2023-07-13T14:25:28;5.70;;;2.47;;
53881;SDS011;39794;55.782;37.452;2023-07-13T14:27:58;7.40;;;2.78;;
53881;SDS011;39794;55.782;37.452;2023-07-13T14:30:34;5.80;;;2.22;;
53881;SDS011;39794;55.782;37.452;2023-07-13T14:33:04;6.57;;;3.30;;
53881;SDS011;39794;55.782;37.452;2023-07-13T14:35:37;5.25;;;2.50;;
53881;SDS011;39794;55.782;37.452;2023-07-13T14:38:07;3.95;;;2.65;;
53881;SDS011;39794;55.782;37.452;2023-07-13T14:40:38;4.38;;;2.38;;
53881;SDS011;39794;55.782;37.452;2023-07-13T14:43:11;4.05;;;2.25;;
53881;SDS011;39794;55.782;37.452;2023-07-13T14:45:41;8.43;;;2.97;;
53881;SDS011;39794;55.782;37.452;2023-07-13T14:48:14;7.57;;;3.67;;
53881;SDS011;39794;55.782;37.452;2023-07-13T14:50:44;4.73;;;2.73;;
53881;SDS011;39794;55.782;37.452;2023-07-13T14:53:14;6.00;;;2.47;;
53881;SDS011;39794;55.782;37.452;2023-07-13T14:55:42;5.75;;;2.22;;
53881;SDS011;39794;55.782;37.452;2023-07-13T14:58:12;7.57;;;3.00;;
53881;SDS011;39794;55.782;37.452;2023-07-13T15:00:41;4.70;;;2.78;;
53881;SDS011;39794;55.782;37.452;2023-07-13T15:03:14;4.60;;;2.80;;
53881;SDS011;39794;55.782;37.452;2023-07-13T15:05:46;6.85;;;3.20;;
53881;SDS011;39794;55.782;37.452;2023-07-13T15:08:15;6.45;;;3.00;;
53881;SDS011;39794;55.782;37.452;2023-07-13T15:10:44;9.15;;;3.45;;
53881;SDS011;39794;55.782;37.452;2023-07-13T15:13:15;8.35;;;4.07;;
53881;SDS011;39794;55.782;37.452;2023-07-13T15:15:46;6.68;;;2.88;;
53881;SDS011;39794;55.782;37.452;2023-07-13T15:18:16;8.60;;;3.03;;
53881;SDS011;39794;55.782;37.452;2023-07-13T15:20:47;6.57;;;3.53;;
53881;SDS011;39794;55.782;37.452;2023-07-13T15:23:17;5.82;;;2.85;;
53881;SDS011;39794;55.782;37.452;2023-07-13T15:25:45;6.47;;;3.00;;
53881;SDS011;39794;55.782;37.452;2023-07-13T15:28:15;6.63;;;3.05;;
53881;SDS011;39794;55.782;37.452;2023-07-13T15:30:44;5.22;;;3.20;;
53881;SDS011;39794;55.782;37.452;2023-07-13T15:33:16;6.35;;;3.13;;